Time;durP1;ratioP1;P1;durP2;ratioP2;P2;SDS_P1;SDS_P2;PMS_P1;PMS_P2;Temp;Humidity;BMP_temperature;BMP_pressure;BME280_temperature;BME280_humidity;BME280_pressure;Samples;Min_cycle;Max_cycle;Signal;HPM_P1;HPM_P2
2021/12/12 00:02:18;;;;;;;;;;;5.50;99.90;;;;;;5016330;28;19909;-76
2021/12/12 00:04:47;;;;;;;;;;;5.40;99.90;;;;;;5017743;28;19910;-77
2021/12/12 00:07:15;;;;;;;;;;;5.40;99.90;;;;;;5017962;28;19941;-77
2021/12/12 00:09:43;;;;;;;;;;;5.30;99.90;;;;;;5017529;28;19956;-76
2021/12/12 00:12:29;;;;;;;;;;;5.10;99.90;;;;;;5006411;28;19920;-76
2021/12/12 00:14:55;;;;;;;;;;;5.10;99.90;;;;;;5033877;28;19925;-76
2021/12/12 00:17:22;;;;;;;;;;;5.00;99.90;;;;;;5016349;28;20438;-77
2021/12/12 00:19:48;;;;;;;;;;;5.00;99.90;;;;;;5020234;28;19980;-76
2021/12/12 00:22:17;;;;;;;;;;;4.90;99.90;;;;;;5019609;28;20450;-76
2021/12/12 00:24:43;;;;;;;;;;;4.80;99.90;;;;;;5033313;28;19909;-76
2021/12/12 00:27:09;;;;;;;;;;;4.60;99.90;;;;;;4999825;28;19910;-76
2021/12/12 00:29:35;;;;;;;;;;;4.60;99.90;;;;;;5019268;28;19910;-76
2021/12/12 00:32:06;;;;;;;;;;;4.50;99.90;;;;;;5019935;28;19909;-77
2021/12/12 00:34:34;;;;;;;;;;;4.40;99.90;;;;;;5003931;28;19964;-76
2021/12/12 00:37:00;;;;;;;;;;;4.40;99.90;;;;;;5019896;28;20004;-76
2021/12/12 00:39:27;;;;;;;;;;;4.30;99.90;;;;;;5021096;28;20000;-76
2021/12/12 00:42:05;;;;;;;;;;;4.20;99.90;;;;;;5020939;28;19956;-77
2021/12/12 00:44:31;;;;;;;;;;;4.20;99.90;;;;;;5020707;28;19917;-76
2021/12/12 00:46:58;;;;;;;;;;;4.20;99.90;;;;;;5020994;28;19913;-76
2021/12/12 00:49:24;;;;;;;;;;;4.20;99.90;;;;;;5019457;28;19916;-76
2021/12/12 00:51:50;;;;;;;;;;;4.20;99.90;;;;;;5020884;28;19909;-76
2021/12/12 00:54:16;;;;;;;;;;;4.10;99.90;;;;;;5020980;28;19968;-76
2021/12/12 00:56:42;;;;;;;;;;;4.20;99.90;;;;;;5020678;28;19909;-76
2021/12/12 00:59:08;;;;;;;;;;;4.20;99.90;;;;;;5020277;28;19965;-76
2021/12/12 01:01:36;;;;;;;;;;;4.30;99.90;;;;;;5020682;28;19909;-76
2021/12/12 01:04:05;;;;;;;;;;;4.30;99.90;;;;;;5020502;28;20364;-76
2021/12/12 01:06:31;;;;;;;;;;;4.30;99.90;;;;;;5026863;28;19909;-76
2021/12/12 01:08:59;;;;;;;;;;;4.30;99.90;;;;;;5020521;28;19909;-76
2021/12/12 01:11:30;;;;;;;;;;;4.20;99.90;;;;;;5021037;28;19909;-76
2021/12/12 01:13:55;;;;;;;;;;;4.20;99.90;;;;;;5022145;28;19924;-76
2021/12/12 01:16:23;;;;;;;;;;;4.20;99.90;;;;;;5008146;28;20293;-77
2021/12/12 01:18:52;;;;;;;;;;;4.10;99.90;;;;;;5019530;28;19909;-76
2021/12/12 01:21:20;;;;;;;;;;;4.00;99.90;;;;;;5035348;28;19924;-77
2021/12/12 01:24:06;;;;;;;;;;;3.90;99.90;;;;;;5040063;28;19920;-76
2021/12/12 01:26:32;;;;;;;;;;;3.90;99.90;;;;;;5039825;28;19909;-76
2021/12/12 01:29:00;;;;;;;;;;;3.90;99.90;;;;;;5039801;28;19917;-76
2021/12/12 01:31:31;;;;;;;;;;;3.80;99.90;;;;;;5039808;28;20059;-77
2021/12/12 01:34:10;;;;;;;;;;;3.80;99.90;;;;;;5040001;28;20365;-76
2021/12/12 01:39:29;;;;;;;;;;;3.90;99.90;;;;;;5019129;28;19918;-76
2021/12/12 01:41:58;;;;;;;;;;;3.90;99.90;;;;;;5019923;28;19914;-76
2021/12/12 01:44:50;;;;;;;;;;;4.00;99.90;;;;;;5019569;28;19909;-76
2021/12/12 01:47:20;;;;;;;;;;;4.00;99.90;;;;;;5016728;28;19913;-76
2021/12/12 01:49:47;;;;;;;;;;;4.10;99.90;;;;;;5002009;28;19917;-76
2021/12/12 01:52:15;;;;;;;;;;;4.10;99.90;;;;;;5019602;28;19913;-76
2021/12/12 01:54:45;;;;;;;;;;;4.10;99.90;;;;;;5019881;28;19909;-76
2021/12/12 01:57:20;;;;;;;;;;;4.10;99.90;;;;;;5019517;28;19918;-76
2021/12/12 01:59:47;;;;;;;;;;;4.20;99.90;;;;;;5019286;28;20459;-76
2021/12/12 02:02:14;;;;;;;;;;;4.20;99.90;;;;;;5019501;28;19913;-76
2021/12/12 02:04:49;;;;;;;;;;;4.20;99.90;;;;;;5019684;28;19909;-76
2021/12/12 02:07:16;;;;;;;;;;;4.20;99.90;;;;;;5019349;28;19909;-76
2021/12/12 02:09:43;;;;;;;;;;;4.20;99.90;;;;;;5018336;28;20374;-77
2021/12/12 02:12:09;;;;;;;;;;;4.10;99.90;;;;;;5008196;28;19925;-76
2021/12/12 02:14:36;;;;;;;;;;;4.10;99.90;;;;;;5020824;28;19909;-76
2021/12/12 02:17:05;;;;;;;;;;;4.10;99.90;;;;;;5019330;28;19959;-76
2021/12/12 02:19:44;;;;;;;;;;;4.10;99.90;;;;;;5019891;28;20342;-76
2021/12/12 02:35:55;;;;;;;;;;;3.80;99.90;;;;;;5035836;28;20064;-76
2021/12/12 02:38:23;;;;;;;;;;;3.70;99.90;;;;;;5019250;28;19965;-76
2021/12/12 02:41:00;;;;;;;;;;;3.60;99.90;;;;;;5018654;28;19913;-76
2021/12/12 02:43:28;;;;;;;;;;;3.60;99.90;;;;;;5018755;28;20464;-76
2021/12/12 02:45:56;;;;;;;;;;;3.50;99.90;;;;;;5018136;28;19909;-76
2021/12/12 02:48:32;;;;;;;;;;;3.50;99.90;;;;;;5009642;28;20408;-76
2021/12/12 02:50:59;;;;;;;;;;;3.40;99.90;;;;;;5001027;28;19917;-77
2021/12/12 02:53:28;;;;;;;;;;;3.40;99.90;;;;;;5017621;28;19948;-76
2021/12/12 02:55:56;;;;;;;;;;;3.30;99.90;;;;;;5000719;28;19914;-77
2021/12/12 02:58:22;;;;;;;;;;;3.30;99.90;;;;;;5018492;28;19910;-76
2021/12/12 03:00:56;;;;;;;;;;;3.20;99.90;;;;;;5018470;28;19913;-76
2021/12/12 03:03:24;;;;;;;;;;;3.20;99.90;;;;;;5017086;28;19917;-76
2021/12/12 03:05:50;;;;;;;;;;;3.10;99.90;;;;;;5018800;28;19917;-76
2021/12/12 03:08:16;;;;;;;;;;;3.10;99.90;;;;;;5018286;28;19918;-76
2021/12/12 03:10:43;;;;;;;;;;;3.00;99.90;;;;;;5018462;28;20004;-76
2021/12/12 03:13:09;;;;;;;;;;;3.00;99.90;;;;;;5032643;28;20040;-76
2021/12/12 03:15:38;;;;;;;;;;;3.00;99.90;;;;;;5029897;28;19917;-76
2021/12/12 03:18:11;;;;;;;;;;;3.00;99.90;;;;;;5018098;28;19909;-76
2021/12/12 03:20:39;;;;;;;;;;;3.00;99.90;;;;;;5028249;28;19917;-76
2021/12/12 03:23:06;;;;;;;;;;;3.00;99.90;;;;;;5037755;28;19909;-76
2021/12/12 03:25:34;;;;;;;;;;;3.00;99.90;;;;;;5037727;28;20365;-76
2021/12/12 03:27:59;;;;;;;;;;;3.00;99.90;;;;;;5037456;28;19917;-77
2021/12/12 03:30:25;;;;;;;;;;;2.90;99.90;;;;;;5026863;28;19909;-76
2021/12/12 03:32:51;;;;;;;;;;;2.90;99.90;;;;;;5017935;28;19909;-76
2021/12/12 03:35:17;;;;;;;;;;;2.80;99.90;;;;;;5018064;28;19933;-76
2021/12/12 03:37:43;;;;;;;;;;;2.80;99.90;;;;;;5016532;28;19909;-76
2021/12/12 03:40:14;;;;;;;;;;;2.80;99.90;;;;;;5017897;28;19967;-76
2021/12/12 03:42:40;;;;;;;;;;;2.80;99.90;;;;;;5017666;28;19956;-76
2021/12/12 03:45:07;;;;;;;;;;;2.80;99.90;;;;;;5000206;28;19914;-76
2021/12/12 03:47:34;;;;;;;;;;;2.90;99.90;;;;;;5000045;28;19936;-76
2021/12/12 03:50:01;;;;;;;;;;;2.80;99.90;;;;;;5017815;28;19909;-76
2021/12/12 03:52:27;;;;;;;;;;;2.80;99.90;;;;;;5017572;28;20328;-76
2021/12/12 03:54:54;;;;;;;;;;;2.70;99.90;;;;;;5017922;28;19909;-76
2021/12/12 03:57:20;;;;;;;;;;;2.70;99.90;;;;;;5017511;28;19953;-76
2021/12/12 03:59:46;;;;;;;;;;;2.70;99.90;;;;;;5017400;28;19921;-76
2021/12/12 04:02:12;;;;;;;;;;;2.70;99.90;;;;;;5017687;28;19917;-76
2021/12/12 04:04:39;;;;;;;;;;;2.60;99.90;;;;;;5021518;28;19910;-76
2021/12/12 04:07:14;;;;;;;;;;;2.60;99.90;;;;;;5003997;28;19909;-76
2021/12/12 04:09:40;;;;;;;;;;;2.50;99.90;;;;;;5011019;28;19916;-76
2021/12/12 04:12:07;;;;;;;;;;;2.50;99.90;;;;;;5027947;28;19913;-76
2021/12/12 04:14:33;;;;;;;;;;;2.60;99.90;;;;;;5041022;28;19988;-76
2021/12/12 04:17:00;;;;;;;;;;;2.60;99.90;;;;;;5021651;28;20405;-76
2021/12/12 04:19:26;;;;;;;;;;;2.70;99.90;;;;;;5012441;28;19921;-76
2021/12/12 04:21:52;;;;;;;;;;;2.80;99.90;;;;;;5041315;28;20317;-76
2021/12/12 04:24:20;;;;;;;;;;;2.90;99.90;;;;;;5041132;28;19909;-76
2021/12/12 04:26:46;;;;;;;;;;;3.00;99.90;;;;;;5041081;28;19935;-76
2021/12/12 04:29:13;;;;;;;;;;;3.00;99.90;;;;;;5040819;28;20370;-76
2021/12/12 04:31:41;;;;;;;;;;;3.00;99.90;;;;;;5023447;28;19909;-76
2021/12/12 04:34:07;;;;;;;;;;;3.00;99.90;;;;;;5040901;28;19920;-76
2021/12/12 04:36:35;;;;;;;;;;;2.90;99.90;;;;;;5023172;28;19909;-76
2021/12/12 04:39:08;;;;;;;;;;;2.90;99.90;;;;;;5040796;28;19909;-76
2021/12/12 04:41:34;;;;;;;;;;;3.00;99.90;;;;;;5040993;28;19919;-76
2021/12/12 04:44:00;;;;;;;;;;;3.00;99.90;;;;;;5040515;28;20003;-76
2021/12/12 04:46:36;;;;;;;;;;;3.00;99.90;;;;;;5040982;28;19953;-76
2021/12/12 04:51:55;;;;;;;;;;;2.90;99.90;;;;;;5027522;28;19979;-76
2021/12/12 04:54:30;;;;;;;;;;;2.90;99.90;;;;;;5028339;28;19909;-76
2021/12/12 04:57:05;;;;;;;;;;;2.90;99.90;;;;;;5040570;28;19943;-76
2021/12/12 04:59:37;;;;;;;;;;;2.80;99.90;;;;;;5039025;28;20285;-76
2021/12/12 05:02:09;;;;;;;;;;;2.80;99.90;;;;;;5040620;28;19963;-76
2021/12/12 05:04:56;;;;;;;;;;;2.70;99.90;;;;;;5040468;28;19909;-76
2021/12/12 05:07:41;;;;;;;;;;;2.70;99.90;;;;;;5040275;28;19994;-76
2021/12/12 05:10:10;;;;;;;;;;;2.70;99.90;;;;;;5040280;28;19909;-76
2021/12/12 05:12:48;;;;;;;;;;;2.70;99.90;;;;;;5021945;28;20389;-76
2021/12/12 05:15:17;;;;;;;;;;;2.70;99.90;;;;;;5033420;28;19909;-76
2021/12/12 05:17:47;;;;;;;;;;;2.70;99.90;;;;;;5020511;28;19956;-76
2021/12/12 05:20:16;;;;;;;;;;;2.70;99.90;;;;;;5026067;28;19924;-76
2021/12/12 05:22:48;;;;;;;;;;;2.70;99.90;;;;;;5027187;28;19910;-76
2021/12/12 05:25:15;;;;;;;;;;;2.70;99.90;;;;;;5027319;28;19916;-76
2021/12/12 05:27:42;;;;;;;;;;;2.70;99.90;;;;;;5021879;28;19909;-76
2021/12/12 05:30:10;;;;;;;;;;;2.60;99.90;;;;;;5038735;28;20012;-76
2021/12/12 05:32:36;;;;;;;;;;;2.60;99.90;;;;;;5029620;28;19913;-76
2021/12/12 05:35:03;;;;;;;;;;;2.60;99.90;;;;;;5039813;28;20052;-76
2021/12/12 05:37:29;;;;;;;;;;;2.60;99.90;;;;;;5039903;28;19913;-76
2021/12/12 05:39:59;;;;;;;;;;;2.60;99.90;;;;;;5038467;28;19920;-76
2021/12/12 05:42:25;;;;;;;;;;;2.60;99.90;;;;;;5021741;28;19963;-76
2021/12/12 05:44:52;;;;;;;;;;;2.60;99.90;;;;;;5039642;28;19913;-76
2021/12/12 05:47:18;;;;;;;;;;;2.60;99.90;;;;;;5039602;28;19956;-76
2021/12/12 05:49:44;;;;;;;;;;;2.60;99.90;;;;;;5038246;28;20289;-77
2021/12/12 05:52:11;;;;;;;;;;;2.60;99.90;;;;;;5021704;28;19915;-76
2021/12/12 05:54:38;;;;;;;;;;;2.70;99.90;;;;;;5039856;28;19925;-76
2021/12/12 05:57:03;;;;;;;;;;;2.70;99.90;;;;;;5038000;28;19909;-76
2021/12/12 05:59:29;;;;;;;;;;;2.80;99.90;;;;;;5039323;28;19913;-76
2021/12/12 06:01:56;;;;;;;;;;;2.80;99.90;;;;;;5037985;28;20324;-76
2021/12/12 06:04:21;;;;;;;;;;;2.90;99.90;;;;;;5021629;28;19909;-76
2021/12/12 06:06:47;;;;;;;;;;;3.00;99.90;;;;;;5021441;28;20292;-76
2021/12/12 06:09:15;;;;;;;;;;;3.00;99.90;;;;;;5039400;28;19909;-76
2021/12/12 06:11:42;;;;;;;;;;;3.00;99.90;;;;;;5037764;28;19917;-76
2021/12/12 06:14:08;;;;;;;;;;;3.10;99.90;;;;;;5038734;28;19952;-76
2021/12/12 06:16:34;;;;;;;;;;;3.10;99.90;;;;;;5004948;28;19916;-76
2021/12/12 06:19:02;;;;;;;;;;;3.10;99.90;;;;;;5019685;28;19910;-76
2021/12/12 06:21:28;;;;;;;;;;;3.10;99.90;;;;;;5035877;28;19917;-76
2021/12/12 06:23:54;;;;;;;;;;;3.00;99.90;;;;;;5021176;28;19917;-76
2021/12/12 06:26:20;;;;;;;;;;;3.00;99.90;;;;;;5020564;28;20431;-76
2021/12/12 06:28:45;;;;;;;;;;;2.90;99.90;;;;;;5038727;28;19936;-76
2021/12/12 06:31:11;;;;;;;;;;;2.90;99.90;;;;;;5038768;28;20377;-76
2021/12/12 06:33:38;;;;;;;;;;;2.90;99.90;;;;;;5021034;28;20016;-76
2021/12/12 06:36:06;;;;;;;;;;;2.80;99.90;;;;;;5020833;28;20452;-76
2021/12/12 06:38:32;;;;;;;;;;;2.70;99.90;;;;;;5038778;28;19909;-77
2021/12/12 06:40:58;;;;;;;;;;;2.60;99.90;;;;;;5038511;28;19920;-76
2021/12/12 06:43:24;;;;;;;;;;;2.60;99.90;;;;;;5038478;28;19910;-76
2021/12/12 06:45:49;;;;;;;;;;;2.50;99.90;;;;;;5005222;28;19952;-76
2021/12/12 06:48:15;;;;;;;;;;;2.50;99.90;;;;;;5018721;28;19977;-76
2021/12/12 06:50:43;;;;;;;;;;;2.40;99.90;;;;;;5020170;28;19909;-76
2021/12/12 06:53:09;;;;;;;;;;;2.40;99.90;;;;;;5020080;28;19916;-76
2021/12/12 06:55:36;;;;;;;;;;;2.30;99.90;;;;;;5037495;28;19909;-76
2021/12/12 06:58:04;;;;;;;;;;;2.40;99.90;;;;;;5019512;28;20336;-76
2021/12/12 07:00:30;;;;;;;;;;;2.40;99.90;;;;;;5019636;28;19917;-76
2021/12/12 07:02:55;;;;;;;;;;;2.50;99.90;;;;;;5037858;28;19992;-76
2021/12/12 07:05:23;;;;;;;;;;;2.60;99.90;;;;;;5019709;28;19916;-76
2021/12/12 07:07:50;;;;;;;;;;;2.70;99.90;;;;;;5019993;28;19917;-76
2021/12/12 07:10:16;;;;;;;;;;;2.80;99.90;;;;;;5037380;28;19964;-75
2021/12/12 07:12:42;;;;;;;;;;;2.90;99.90;;;;;;5037137;28;19940;-76
2021/12/12 07:15:10;;;;;;;;;;;3.00;99.90;;;;;;5019645;28;19909;-76
2021/12/12 07:17:36;;;;;;;;;;;3.00;99.90;;;;;;5019723;28;19909;-76
2021/12/12 07:20:19;;;;;;;;;;;3.10;99.90;;;;;;5114906;27;19912;-76
2021/12/12 07:22:45;;;;;;;;;;;3.10;99.90;;;;;;5111390;28;20467;-76
2021/12/12 07:25:10;;;;;;;;;;;3.10;99.90;;;;;;5104028;28;19913;-77
2021/12/12 07:27:36;;;;;;;;;;;3.10;99.90;;;;;;5126826;27;19931;-77
2021/12/12 07:30:03;;;;;;;;;;;3.20;99.90;;;;;;5095136;28;19915;-77
2021/12/12 07:32:28;;;;;;;;;;;3.20;99.90;;;;;;5094983;28;19958;-77
2021/12/12 07:34:54;;;;;;;;;;;3.20;99.90;;;;;;5093722;28;19909;-77
2021/12/12 07:37:20;;;;;;;;;;;3.20;99.90;;;;;;5094818;28;20292;-77
2021/12/12 07:39:47;;;;;;;;;;;3.20;99.90;;;;;;5094754;28;20045;-77
2021/12/12 07:42:14;;;;;;;;;;;3.20;99.90;;;;;;5094684;28;19908;-77
2021/12/12 07:44:40;;;;;;;;;;;3.20;99.90;;;;;;5094688;28;20330;-77
2021/12/12 07:47:07;;;;;;;;;;;3.20;99.90;;;;;;5093302;28;19955;-77
2021/12/12 07:49:35;;;;;;;;;;;3.20;99.90;;;;;;5094634;28;19912;-76
2021/12/12 07:52:02;;;;;;;;;;;3.20;99.90;;;;;;5094570;28;19908;-77
2021/12/12 07:54:28;;;;;;;;;;;3.10;99.90;;;;;;5093271;28;19908;-77
2021/12/12 07:56:54;;;;;;;;;;;3.10;99.90;;;;;;5094354;28;19915;-77
2021/12/12 07:59:20;;;;;;;;;;;3.10;99.90;;;;;;5092915;28;19913;-77
2021/12/12 08:01:46;;;;;;;;;;;3.10;99.90;;;;;;5103190;28;19919;-77
2021/12/12 08:04:13;;;;;;;;;;;3.10;99.90;;;;;;5104899;28;19923;-77
2021/12/12 08:06:39;;;;;;;;;;;3.10;99.90;;;;;;5092413;28;20295;-77
2021/12/12 08:09:06;;;;;;;;;;;3.10;99.90;;;;;;5094450;28;19915;-77
2021/12/12 08:11:33;;;;;;;;;;;3.10;99.90;;;;;;5092602;28;19909;-77
2021/12/12 08:14:00;;;;;;;;;;;3.10;99.90;;;;;;5093835;28;20439;-77
2021/12/12 08:16:26;;;;;;;;;;;3.20;99.90;;;;;;5094144;28;19908;-77
2021/12/12 08:18:55;;;;;;;;;;;3.20;99.90;;;;;;5093869;28;19927;-77
2021/12/12 08:21:21;;;;;;;;;;;3.20;99.90;;;;;;5077689;28;19916;-77
2021/12/12 08:23:47;;;;;;;;;;;3.20;99.90;;;;;;5074080;28;19909;-77
2021/12/12 08:26:13;;;;;;;;;;;3.30;99.90;;;;;;5072608;28;19909;-77
2021/12/12 08:28:39;;;;;;;;;;;3.30;99.90;;;;;;5097610;28;20116;-77
2021/12/12 08:31:05;;;;;;;;;;;3.40;99.90;;;;;;5088283;28;19909;-77
2021/12/12 08:33:32;;;;;;;;;;;3.50;99.90;;;;;;5089240;28;20020;-77
2021/12/12 08:35:58;;;;;;;;;;;3.50;99.90;;;;;;5079127;28;19952;-77
2021/12/12 08:38:24;;;;;;;;;;;3.60;99.90;;;;;;5080154;28;19962;-77
2021/12/12 08:40:51;;;;;;;;;;;3.60;99.90;;;;;;5078607;28;19908;-77
2021/12/12 08:43:19;;;;;;;;;;;3.70;99.90;;;;;;5080013;28;19909;-77
2021/12/12 08:45:46;;;;;;;;;;;3.80;99.90;;;;;;5080110;28;19909;-76
2021/12/12 08:48:13;;;;;;;;;;;3.90;99.90;;;;;;5078770;28;19912;-77
2021/12/12 08:50:40;;;;;;;;;;;3.90;99.90;;;;;;5090492;28;19916;-77
2021/12/12 08:53:07;;;;;;;;;;;4.00;99.90;;;;;;5085466;28;19919;-77
2021/12/12 08:55:36;;;;;;;;;;;4.10;99.90;;;;;;5082026;28;20369;-77
2021/12/12 08:58:14;;;;;;;;;;;4.20;99.90;;;;;;5078353;28;19909;-77
2021/12/12 09:00:58;;;;;;;;;;;4.30;99.90;;;;;;5079719;28;20383;-77
2021/12/12 09:03:35;;;;;;;;;;;4.40;99.90;;;;;;5079795;28;19908;-77
2021/12/12 09:06:01;;;;;;;;;;;4.50;99.90;;;;;;5077875;28;20007;-77
2021/12/12 09:08:35;;;;;;;;;;;4.60;99.90;;;;;;5063246;28;19955;-77
2021/12/12 09:11:01;;;;;;;;;;;4.60;99.90;;;;;;5058214;28;19908;-78
2021/12/12 09:13:28;;;;;;;;;;;4.70;99.90;;;;;;5090544;28;19965;-77
2021/12/12 09:16:19;;;;;;;;;;;4.80;99.90;;;;;;5087756;28;19908;-77
2021/12/12 09:18:45;;;;;;;;;;;4.90;99.90;;;;;;5086111;28;19920;-80
2021/12/12 09:21:13;;;;;;;;;;;5.00;99.90;;;;;;5063349;28;20339;-76
2021/12/12 09:23:52;;;;;;;;;;;5.10;99.90;;;;;;5067769;28;19955;-77
2021/12/12 09:26:21;;;;;;;;;;;5.20;99.90;;;;;;5059089;28;19913;-77
2021/12/12 09:28:56;;;;;;;;;;;5.30;99.90;;;;;;5059224;28;19916;-77
2021/12/12 09:31:30;;;;;;;;;;;5.40;99.90;;;;;;5057963;28;19970;-77
2021/12/12 09:33:56;;;;;;;;;;;5.50;99.90;;;;;;5057874;28;19909;-77
2021/12/12 09:36:25;;;;;;;;;;;5.70;99.90;;;;;;5058051;28;19908;-78
2021/12/12 09:38:51;;;;;;;;;;;5.90;99.90;;;;;;5059129;28;19956;-77
2021/12/12 09:41:23;;;;;;;;;;;6.10;99.90;;;;;;5073260;28;19954;-77
2021/12/12 09:43:48;;;;;;;;;;;6.40;99.90;;;;;;5076992;28;19919;-77
2021/12/12 09:46:18;;;;;;;;;;;6.60;99.90;;;;;;5076285;28;19912;-77
2021/12/12 09:51:47;;;;;;;;;;;6.90;99.90;;;;;;5058973;28;19916;-77
2021/12/12 09:54:20;;;;;;;;;;;7.10;99.90;;;;;;5057536;28;19909;-77
2021/12/12 09:56:45;;;;;;;;;;;7.20;99.90;;;;;;5058778;28;19908;-77
2021/12/12 09:59:23;;;;;;;;;;;7.40;99.90;;;;;;5058407;28;19920;-77
2021/12/12 10:01:51;;;;;;;;;;;7.50;99.90;;;;;;5058637;28;19927;-76
2021/12/12 10:04:24;;;;;;;;;;;7.60;99.90;;;;;;5057378;28;19909;-76
2021/12/12 10:06:52;;;;;;;;;;;7.70;99.90;;;;;;5059998;28;20391;-76
2021/12/12 10:09:24;;;;;;;;;;;7.80;99.90;;;;;;5084280;28;19978;-76
2021/12/12 10:11:53;;;;;;;;;;;7.80;99.90;;;;;;5078228;28;20284;-77
2021/12/12 10:14:34;;;;;;;;;;;7.90;99.90;;;;;;5066901;28;20017;-76
2021/12/12 10:17:16;;;;;;;;;;;7.90;99.90;;;;;;5061728;28;19913;-77
2021/12/12 10:19:41;;;;;;;;;;;8.00;99.90;;;;;;5072710;28;19927;-76
2021/12/12 10:22:42;;;;;;;;;;;8.00;99.90;;;;;;5058253;28;19908;-76
2021/12/12 10:25:13;;;;;;;;;;;8.10;99.90;;;;;;5075734;28;20442;-79
2021/12/12 10:27:39;;;;;;;;;;;8.10;99.90;;;;;;5059907;28;20273;-79
2021/12/12 10:30:04;;;;;;;;;;;8.20;99.90;;;;;;5076761;28;19914;-79
2021/12/12 10:32:32;;;;;;;;;;;8.20;99.90;;;;;;5077877;28;19915;-79
2021/12/12 10:35:00;;;;;;;;;;;8.20;99.90;;;;;;5077989;28;19909;-79
2021/12/12 10:37:33;;;;;;;;;;;8.20;99.90;;;;;;5069757;28;19913;-79
2021/12/12 10:40:05;;;;;;;;;;;8.30;99.90;;;;;;5057824;28;19913;-79
2021/12/12 10:42:33;;;;;;;;;;;8.20;99.90;;;;;;5057413;28;20019;-79
2021/12/12 10:45:01;;;;;;;;;;;8.20;99.90;;;;;;5056510;28;20339;-79
2021/12/12 10:47:30;;;;;;;;;;;8.20;99.90;;;;;;5057963;28;19936;-79
2021/12/12 10:49:56;;;;;;;;;;;8.20;99.90;;;;;;5068210;28;19976;-79
2021/12/12 10:52:31;;;;;;;;;;;8.10;99.90;;;;;;5060262;28;19912;-79
2021/12/12 10:55:06;;;;;;;;;;;8.10;99.90;;;;;;5055887;28;19938;-79
2021/12/12 10:57:33;;;;;;;;;;;8.10;99.90;;;;;;5054992;28;19947;-79
2021/12/12 11:00:05;;;;;;;;;;;8.10;99.90;;;;;;5056904;28;20334;-79
2021/12/12 11:02:39;;;;;;;;;;;8.20;99.90;;;;;;5063909;28;19909;-79
2021/12/12 11:05:13;;;;;;;;;;;8.20;99.90;;;;;;5076123;28;19908;-79
2021/12/12 11:07:58;;;;;;;;;;;8.20;99.90;;;;;;5077603;28;19909;-79
2021/12/12 11:10:33;;;;;;;;;;;8.20;99.90;;;;;;5077440;28;19908;-79
2021/12/12 11:13:07;;;;;;;;;;;8.30;99.90;;;;;;5077399;28;19973;-79
2021/12/12 11:15:35;;;;;;;;;;;8.30;99.90;;;;;;5077616;28;19974;-79
2021/12/12 11:18:05;;;;;;;;;;;8.40;99.90;;;;;;5077146;28;19908;-79
2021/12/12 11:20:35;;;;;;;;;;;8.40;99.90;;;;;;5068461;28;19968;-76
2021/12/12 11:23:20;;;;;;;;;;;8.50;99.90;;;;;;5057484;28;19948;-79
2021/12/12 11:25:46;;;;;;;;;;;8.60;99.90;;;;;;5056021;28;19916;-79
2021/12/12 11:28:33;;;;;;;;;;;8.60;99.90;;;;;;5055873;28;19935;-79
2021/12/12 11:31:01;;;;;;;;;;;8.70;99.90;;;;;;5057480;28;19909;-79
2021/12/12 11:33:30;;;;;;;;;;;8.70;99.90;;;;;;5057383;28;19916;-79
2021/12/12 11:35:56;;;;;;;;;;;8.70;99.90;;;;;;5059237;28;19924;-79
2021/12/12 11:38:38;;;;;;;;;;;8.70;99.90;;;;;;5076028;28;19912;-79
2021/12/12 11:41:24;;;;;;;;;;;8.80;99.90;;;;;;5077350;28;19947;-79
2021/12/12 11:43:50;;;;;;;;;;;8.80;99.90;;;;;;5055775;28;19912;-79
2021/12/12 11:46:20;;;;;;;;;;;8.90;99.90;;;;;;5077380;28;19915;-79
2021/12/12 11:49:05;;;;;;;;;;;9.00;99.90;;;;;;5077201;28;19990;-79
2021/12/12 11:51:35;;;;;;;;;;;9.00;99.90;;;;;;5077240;28;19908;-78
2021/12/12 11:54:11;;;;;;;;;;;9.10;99.90;;;;;;5077090;28;19995;-78
2021/12/12 11:56:45;;;;;;;;;;;9.20;99.90;;;;;;5077175;28;19939;-78
2021/12/12 11:59:15;;;;;;;;;;;9.30;99.90;;;;;;5076824;28;19920;-78
2021/12/12 12:01:49;;;;;;;;;;;9.40;99.90;;;;;;5075760;28;19962;-78
2021/12/12 12:04:34;;;;;;;;;;;9.40;99.90;;;;;;5077196;28;19909;-78
2021/12/12 12:07:17;;;;;;;;;;;9.40;99.90;;;;;;5080529;28;19913;-79
2021/12/12 12:09:43;;;;;;;;;;;9.40;99.90;;;;;;5081006;28;20730;-78
2021/12/12 12:12:23;;;;;;;;;;;9.40;99.90;;;;;;5080775;28;19912;-78
2021/12/12 12:14:51;;;;;;;;;;;9.40;99.90;;;;;;5080852;28;19934;-78
2021/12/12 12:17:35;;;;;;;;;;;9.40;99.90;;;;;;5080764;28;19958;-78
2021/12/12 12:20:06;;;;;;;;;;;9.40;99.90;;;;;;5075308;28;19943;-78
2021/12/12 12:22:42;;;;;;;;;;;9.60;99.90;;;;;;5059346;28;19954;-78
2021/12/12 12:25:24;;;;;;;;;;;9.60;99.90;;;;;;5059382;28;20249;-78
2021/12/12 12:27:51;;;;;;;;;;;9.60;99.90;;;;;;5058899;28;20269;-78
2021/12/12 12:30:33;;;;;;;;;;;9.60;99.90;;;;;;5060564;28;19909;-78
2021/12/12 12:33:13;;;;;;;;;;;9.60;99.90;;;;;;5060430;28;19909;-78
2021/12/12 12:35:57;;;;;;;;;;;9.70;99.90;;;;;;5060546;28;20418;-77
2021/12/12 12:38:42;;;;;;;;;;;9.70;99.90;;;;;;5059063;28;19955;-78
2021/12/12 12:41:26;;;;;;;;;;;9.80;99.90;;;;;;5059991;28;19909;-78
2021/12/12 12:44:10;;;;;;;;;;;9.90;99.90;;;;;;5059979;28;19931;-79
2021/12/12 12:46:54;;;;;;;;;;;9.90;99.90;;;;;;5060304;28;19975;-78
2021/12/12 12:49:46;;;;;;;;;;;9.90;99.90;;;;;;5059808;28;19919;-78
2021/12/12 12:52:21;;;;;;;;;;;9.80;99.90;;;;;;5064831;28;19916;-78
2021/12/12 12:54:59;;;;;;;;;;;9.80;99.90;;;;;;5078560;28;19908;-78
2021/12/12 12:57:36;;;;;;;;;;;9.80;99.90;;;;;;5079496;28;19908;-78
2021/12/12 13:00:13;;;;;;;;;;;9.80;99.90;;;;;;5078380;28;19920;-78
2021/12/12 13:02:55;;;;;;;;;;;9.80;99.90;;;;;;5079918;28;20007;-78
2021/12/12 13:05:34;;;;;;;;;;;9.80;99.90;;;;;;5079755;28;19998;-78
2021/12/12 13:08:18;;;;;;;;;;;9.80;99.90;;;;;;5059754;28;19909;-79
2021/12/12 13:10:45;;;;;;;;;;;9.80;99.90;;;;;;5068372;28;19916;-78
2021/12/12 13:13:28;;;;;;;;;;;9.80;99.90;;;;;;5079442;28;19974;-78
2021/12/12 13:15:54;;;;;;;;;;;9.80;99.90;;;;;;5079500;28;19916;-78
2021/12/12 13:18:34;;;;;;;;;;;9.80;99.90;;;;;;5079124;28;20380;-78
2021/12/12 13:21:12;;;;;;;;;;;9.80;99.90;;;;;;5067068;28;19956;-79
2021/12/12 13:23:56;;;;;;;;;;;9.70;99.90;;;;;;5059529;28;19963;-78
2021/12/12 13:26:32;;;;;;;;;;;9.70;99.90;;;;;;5059223;28;19909;-78
2021/12/12 13:29:03;;;;;;;;;;;9.70;99.90;;;;;;5057899;28;19915;-78
2021/12/12 13:31:36;;;;;;;;;;;9.70;99.90;;;;;;5059079;28;19912;-79
2021/12/12 13:34:10;;;;;;;;;;;9.80;99.90;;;;;;5059303;28;19959;-79
2021/12/12 13:36:54;;;;;;;;;;;9.90;99.90;;;;;;5067101;28;19909;-79
2021/12/12 13:39:20;;;;;;;;;;;9.90;99.90;;;;;;5078969;28;19912;-79
2021/12/12 13:41:45;;;;;;;;;;;9.80;99.90;;;;;;5079030;28;19958;-79
2021/12/12 13:44:11;;;;;;;;;;;9.80;99.90;;;;;;5078671;28;19909;-78
2021/12/12 13:46:36;;;;;;;;;;;9.70;99.90;;;;;;5077766;28;19954;-78
2021/12/12 13:49:08;;;;;;;;;;;9.70;99.90;;;;;;5077626;28;19912;-79
2021/12/12 13:51:46;;;;;;;;;;;9.70;99.90;;;;;;5079128;28;20384;-78
2021/12/12 13:54:11;;;;;;;;;;;9.70;99.90;;;;;;5078204;28;19909;-78
2021/12/12 13:56:44;;;;;;;;;;;9.70;99.90;;;;;;5078721;28;19908;-78
2021/12/12 13:59:13;;;;;;;;;;;9.70;99.90;;;;;;5078649;28;19912;-79
2021/12/12 14:01:56;;;;;;;;;;;9.60;99.90;;;;;;5077368;28;20152;-79
2021/12/12 14:04:25;;;;;;;;;;;9.50;99.90;;;;;;5078751;28;19975;-79
2021/12/12 14:06:51;;;;;;;;;;;9.50;99.90;;;;;;5077167;28;19912;-78
2021/12/12 14:09:20;;;;;;;;;;;9.40;99.90;;;;;;5078651;28;19923;-78
2021/12/12 14:11:48;;;;;;;;;;;9.30;99.90;;;;;;5078282;28;19958;-78
2021/12/12 14:14:23;;;;;;;;;;;9.30;99.90;;;;;;5078287;28;19955;-79
2021/12/12 14:16:51;;;;;;;;;;;9.30;99.90;;;;;;5078302;28;19908;-78
2021/12/12 14:19:17;;;;;;;;;;;9.30;99.90;;;;;;5077920;28;20306;-78
2021/12/12 14:21:44;;;;;;;;;;;9.20;99.90;;;;;;5059296;28;20000;-79
2021/12/12 14:24:10;;;;;;;;;;;9.10;99.90;;;;;;5058444;28;19912;-78
2021/12/12 14:26:48;;;;;;;;;;;9.10;99.90;;;;;;5058028;28;19909;-79
2021/12/12 14:29:15;;;;;;;;;;;9.00;99.90;;;;;;5057480;28;19971;-79
2021/12/12 14:31:46;;;;;;;;;;;8.90;99.90;;;;;;5058253;28;19944;-78
2021/12/12 14:34:17;;;;;;;;;;;8.90;99.90;;;;;;5058150;28;19915;-79
2021/12/12 14:36:44;;;;;;;;;;;8.80;99.90;;;;;;5058396;28;19948;-79
2021/12/12 14:39:10;;;;;;;;;;;8.70;99.90;;;;;;5057928;28;20005;-78
2021/12/12 14:41:40;;;;;;;;;;;8.70;99.90;;;;;;5061880;28;19916;-79
2021/12/12 14:44:18;;;;;;;;;;;8.70;99.90;;;;;;5057967;28;19997;-78
2021/12/12 14:46:49;;;;;;;;;;;8.70;99.90;;;;;;5056812;28;20257;-78
2021/12/12 14:49:16;;;;;;;;;;;8.60;99.90;;;;;;5057801;28;19909;-79
2021/12/12 14:51:53;;;;;;;;;;;8.50;99.90;;;;;;5057936;28;19909;-79
2021/12/12 14:54:19;;;;;;;;;;;8.40;99.90;;;;;;5065287;28;19908;-78
2021/12/12 14:56:47;;;;;;;;;;;8.30;99.90;;;;;;5077841;28;19936;-78
2021/12/12 14:59:21;;;;;;;;;;;8.30;99.90;;;;;;5077589;28;19982;-78
2021/12/12 15:01:49;;;;;;;;;;;8.30;99.90;;;;;;5076339;28;19909;-78
2021/12/12 15:04:22;;;;;;;;;;;8.30;99.90;;;;;;5077796;28;20433;-78
2021/12/12 15:06:48;;;;;;;;;;;8.40;99.90;;;;;;5077607;28;19959;-78
2021/12/12 15:09:16;;;;;;;;;;;8.30;99.90;;;;;;5077891;28;19912;-79
2021/12/12 15:11:44;;;;;;;;;;;8.30;99.90;;;;;;5077257;28;19979;-79